Terminal Aerodrome Forecast
Issued by NWS

Home | Current Version | Previous Version | Text Only | Print | Product List | Glossary On
Versions: 1 2 3 4 5 6 7 8 9 10 11 12 13 14 15 16
000
FTUS41 KRNK 221733
TAFBCB
TAF
KBCB 221733Z 2218/2318 30013G21KT P6SM FEW040
     FM222200 31009KT P6SM SKC
     FM230200 31005KT P6SM FEW250
     FM231100 00000KT 4SM BR FEW250
     FM231300 00000KT P6SM FEW250=

USA.gov is the U.S. government's official web portal to all federal, state and local government web resources and services.